createdAt,value
2023-05-09T00:01:37.685Z,1.15
2023-05-09T00:04:42.032Z,1.30
2023-05-09T00:07:46.476Z,1.08
2023-05-09T00:10:50.765Z,1.40
2023-05-09T00:13:55.109Z,1.42
2023-05-09T00:16:59.252Z,1.58
2023-05-09T00:20:03.644Z,2.08
2023-05-09T00:23:08.165Z,1.70
2023-05-09T00:26:12.542Z,1.73
2023-05-09T00:29:16.690Z,1.83
2023-05-09T00:32:20.897Z,1.60
2023-05-09T00:35:25.263Z,2.03
2023-05-09T00:38:29.988Z,2.00
2023-05-09T00:41:34.390Z,1.73
2023-05-09T00:44:38.597Z,2.40
2023-05-09T00:47:42.784Z,2.10
2023-05-09T00:50:46.994Z,1.95
2023-05-09T00:53:51.319Z,2.45
2023-05-09T00:56:55.860Z,2.13
2023-05-09T01:00:00.387Z,2.05
2023-05-09T01:03:04.846Z,2.17
2023-05-09T01:06:09.380Z,2.42
2023-05-09T01:09:14.127Z,1.90
2023-05-09T01:12:18.425Z,1.90
2023-05-09T01:15:22.651Z,2.35
2023-05-09T01:18:26.921Z,1.95
2023-05-09T01:21:31.399Z,2.40
2023-05-09T01:24:35.970Z,2.30
2023-05-09T01:27:40.236Z,1.88
2023-05-09T01:30:44.720Z,1.70
2023-05-09T01:33:48.744Z,1.80
2023-05-09T01:36:53.283Z,2.38
2023-05-09T01:39:57.824Z,1.80
2023-05-09T01:43:02.150Z,1.80
2023-05-09T01:46:06.391Z,1.83
2023-05-09T01:49:10.912Z,2.22
2023-05-09T01:52:15.242Z,2.30
2023-05-09T01:55:19.366Z,2.13
2023-05-09T01:58:23.610Z,2.22
2023-05-09T02:01:27.832Z,1.92
2023-05-09T02:04:32.184Z,1.90
2023-05-09T02:07:36.346Z,2.00
2023-05-09T02:10:40.689Z,1.45
2023-05-09T02:13:44.851Z,1.67
2023-05-09T02:16:49.148Z,1.85
2023-05-09T02:19:53.521Z,1.70
2023-05-09T02:22:57.904Z,1.90
2023-05-09T02:26:02.122Z,1.90
2023-05-09T02:29:06.362Z,2.60
2023-05-09T02:32:10.560Z,2.30
2023-05-09T02:35:15.259Z,1.80
2023-05-09T02:38:19.782Z,2.08
2023-05-09T02:41:24.317Z,2.47
2023-05-09T02:44:28.650Z,2.28
2023-05-09T02:47:32.812Z,2.03
2023-05-09T02:50:37.170Z,1.98
2023-05-09T02:53:41.578Z,2.15
2023-05-09T02:56:46.046Z,1.83
2023-05-09T02:59:50.404Z,1.85
2023-05-09T03:02:54.593Z,1.90
2023-05-09T03:05:58.908Z,2.40
2023-05-09T03:09:03.308Z,2.40
2023-05-09T03:12:07.574Z,2.47
2023-05-09T03:15:11.786Z,2.28
2023-05-09T03:18:15.870Z,2.05
2023-05-09T03:21:20.002Z,2.70
2023-05-09T03:24:24.310Z,2.90
2023-05-09T03:27:28.552Z,2.65
2023-05-09T03:30:32.609Z,2.88
2023-05-09T03:33:36.847Z,2.33
2023-05-09T03:36:41.215Z,1.85
2023-05-09T03:39:45.316Z,2.13
2023-05-09T03:42:49.509Z,2.13
2023-05-09T03:45:53.720Z,2.30
2023-05-09T03:48:57.989Z,3.88
2023-05-09T03:52:02.228Z,5.20
2023-05-09T03:55:06.558Z,4.43
2023-05-09T03:58:10.971Z,3.58
2023-05-09T04:01:14.855Z,3.88
2023-05-09T04:04:19.529Z,4.57
2023-05-09T04:07:23.909Z,4.20
2023-05-09T04:10:28.240Z,4.45
2023-05-09T04:13:32.621Z,4.75
2023-05-09T04:16:36.733Z,5.05
2023-05-09T04:19:40.815Z,4.60
2023-05-09T04:22:46.723Z,4.43
2023-05-09T04:25:51.381Z,5.18
2023-05-09T04:28:55.501Z,4.07
2023-05-09T04:31:59.764Z,4.07
2023-05-09T04:35:04.399Z,3.63
2023-05-09T04:38:09.056Z,4.47
2023-05-09T04:41:13.528Z,4.13
2023-05-09T04:44:18.005Z,4.13
2023-05-09T04:47:22.299Z,4.32
2023-05-09T04:50:26.544Z,4.05
2023-05-09T04:53:31.046Z,4.40
2023-05-09T04:56:35.483Z,3.80
2023-05-09T04:59:39.937Z,4.32
2023-05-09T05:02:44.578Z,4.18
2023-05-09T05:05:48.937Z,4.53
2023-05-09T05:08:53.152Z,4.25
2023-05-09T05:12:01.288Z,4.03
2023-05-09T05:15:07.006Z,3.90
2023-05-09T05:18:11.284Z,4.70
2023-05-09T05:21:15.694Z,4.32
2023-05-09T05:24:19.790Z,16.35
2023-05-09T05:27:23.985Z,4.97
2023-05-09T05:30:28.491Z,4.40
2023-05-09T05:33:32.932Z,4.25
2023-05-09T05:36:37.336Z,4.63
2023-05-09T05:39:41.747Z,4.30
2023-05-09T05:42:46.115Z,4.10
2023-05-09T05:45:50.451Z,4.50
2023-05-09T05:48:54.792Z,4.45
2023-05-09T05:51:59.662Z,4.55
2023-05-09T05:55:03.838Z,3.95
2023-05-09T05:58:08.033Z,4.28
2023-05-09T06:01:12.241Z,4.68
2023-05-09T06:04:16.752Z,5.18
2023-05-09T06:07:21.040Z,5.25
2023-05-09T06:10:25.139Z,5.32
2023-05-09T06:13:29.487Z,4.85
2023-05-09T06:16:33.925Z,4.20
2023-05-09T06:19:38.379Z,4.57
2023-05-09T06:22:42.689Z,5.20
2023-05-09T06:25:47.233Z,5.70
2023-05-09T06:28:51.364Z,5.15
2023-05-09T06:31:55.853Z,4.72
2023-05-09T06:35:00.650Z,4.38
2023-05-09T06:38:05.096Z,4.68
2023-05-09T06:41:09.736Z,5.43
2023-05-09T06:44:14.019Z,5.00
2023-05-09T06:47:18.730Z,5.10
2023-05-09T06:50:23.578Z,4.82
2023-05-09T06:53:27.940Z,4.65
2023-05-09T06:56:32.319Z,4.78
2023-05-09T06:59:36.474Z,4.38
2023-05-09T07:02:40.748Z,3.85
2023-05-09T07:05:45.278Z,4.25
2023-05-09T07:08:49.974Z,4.45
2023-05-09T07:11:54.585Z,4.90
2023-05-09T07:14:58.589Z,4.88
2023-05-09T07:18:03.022Z,4.53
2023-05-09T07:21:07.290Z,4.63
2023-05-09T07:24:11.599Z,4.30
2023-05-09T07:27:15.900Z,4.22
2023-05-09T07:30:20.316Z,4.50
2023-05-09T07:33:24.536Z,4.43
2023-05-09T07:36:28.874Z,4.35
2023-05-09T07:39:33.517Z,4.47
2023-05-09T07:42:37.811Z,4.78
2023-05-09T07:45:42.137Z,4.55
2023-05-09T07:48:46.633Z,4.10
2023-05-09T07:51:51.029Z,4.90
2023-05-09T07:54:55.344Z,4.10
2023-05-09T07:57:59.549Z,4.13
2023-05-09T08:01:03.794Z,3.92
2023-05-09T08:04:08.017Z,3.88
2023-05-09T08:07:12.437Z,4.00
2023-05-09T08:10:16.738Z,5.07
2023-05-09T08:13:20.901Z,5.15
2023-05-09T08:16:25.179Z,3.50
2023-05-09T08:19:29.387Z,3.47
2023-05-09T08:22:34.030Z,3.60
2023-05-09T08:25:38.397Z,4.05
2023-05-09T08:28:42.692Z,3.33
2023-05-09T08:31:47.060Z,3.20
2023-05-09T08:34:51.478Z,2.88
2023-05-09T08:37:55.696Z,2.97
2023-05-09T08:41:00.002Z,3.55
2023-05-09T08:44:04.287Z,3.65
2023-05-09T08:47:08.662Z,3.00
2023-05-09T08:50:13.107Z,2.90
2023-05-09T08:53:17.729Z,3.08
2023-05-09T08:56:22.210Z,2.53
2023-05-09T08:59:26.494Z,3.13
2023-05-09T09:02:30.599Z,2.03
2023-05-09T09:08:44.333Z,3.13
2023-05-09T09:11:48.735Z,2.35
2023-05-09T09:14:53.162Z,2.03
2023-05-09T09:17:57.691Z,2.83
2023-05-09T09:21:01.885Z,2.63
2023-05-09T09:24:06.195Z,2.85
2023-05-09T09:27:10.464Z,3.20
2023-05-09T09:30:15.202Z,2.25
2023-05-09T09:33:19.487Z,1.85
2023-05-09T09:36:23.811Z,3.08
2023-05-09T09:39:28.315Z,3.20
2023-05-09T09:42:32.935Z,3.35
2023-05-09T09:45:37.439Z,3.30
2023-05-09T09:48:41.609Z,2.90
2023-05-09T09:51:45.880Z,2.33
2023-05-09T09:54:50.116Z,2.80
2023-05-09T09:57:54.375Z,2.63
2023-05-09T10:00:58.929Z,2.42
2023-05-09T10:04:03.497Z,2.20
2023-05-09T10:07:08.227Z,2.15
2023-05-09T10:10:12.432Z,1.73
2023-05-09T10:13:17.691Z,1.65
2023-05-09T10:16:35.703Z,1.98
2023-05-09T10:19:46.616Z,2.13
2023-05-09T10:22:50.863Z,2.03
2023-05-09T10:25:55.372Z,2.22
2023-05-09T10:28:59.565Z,1.48
2023-05-09T10:32:03.806Z,1.85
2023-05-09T10:35:08.110Z,1.98
2023-05-09T10:38:12.670Z,2.00
2023-05-09T10:41:17.698Z,1.80
2023-05-09T10:44:22.292Z,2.47
2023-05-09T10:47:26.649Z,2.67
2023-05-09T10:50:31.293Z,2.15
2023-05-09T10:53:35.437Z,2.03
2023-05-09T10:56:39.686Z,1.33
2023-05-09T10:59:44.112Z,1.58
2023-05-09T11:02:48.504Z,1.85
2023-05-09T11:05:52.931Z,1.52
2023-05-09T11:08:57.321Z,1.95
2023-05-09T11:12:01.646Z,2.67
2023-05-09T11:15:05.870Z,1.48
2023-05-09T11:18:10.335Z,1.60
2023-05-09T11:21:15.006Z,1.80
2023-05-09T11:24:19.476Z,2.05
2023-05-09T11:27:23.884Z,1.80
2023-05-09T11:30:27.982Z,1.63
2023-05-09T11:33:32.551Z,1.85
2023-05-09T11:36:36.677Z,1.42
2023-05-09T11:42:29.371Z,1.23
2023-05-09T11:45:33.688Z,1.27
2023-05-09T11:48:37.898Z,1.52
2023-05-09T11:51:42.173Z,1.58
2023-05-09T11:54:46.556Z,2.20
2023-05-09T11:57:51.219Z,1.60
2023-05-09T12:00:55.721Z,2.20
2023-05-09T12:04:00.016Z,1.80
2023-05-09T12:07:04.400Z,1.60
2023-05-09T12:10:08.705Z,1.52
2023-05-09T12:13:13.234Z,2.03
2023-05-09T12:16:17.617Z,1.92
2023-05-09T12:19:21.886Z,1.45
2023-05-09T12:22:26.469Z,2.08
2023-05-09T12:25:30.933Z,2.03
2023-05-09T12:28:35.553Z,2.05
2023-05-09T12:31:39.931Z,1.80
2023-05-09T12:34:44.127Z,1.67
2023-05-09T12:37:48.715Z,1.80
2023-05-09T12:40:53.148Z,2.03
2023-05-09T12:43:57.845Z,2.20
2023-05-09T12:47:02.103Z,1.77
2023-05-09T12:50:06.407Z,1.98
2023-05-09T12:53:10.856Z,2.25
2023-05-09T12:56:15.270Z,1.35
2023-05-09T12:59:19.638Z,1.13
2023-05-09T13:02:23.867Z,1.83
2023-05-09T13:05:28.075Z,1.77
2023-05-09T13:08:32.497Z,2.13
2023-05-09T13:11:36.846Z,1.33
2023-05-09T13:14:41.538Z,1.67
2023-05-09T13:17:45.889Z,1.80
2023-05-09T13:20:50.301Z,1.92
2023-05-09T13:23:54.842Z,2.28
2023-05-09T13:26:59.216Z,1.33
2023-05-09T13:30:03.554Z,1.75
2023-05-09T13:33:21.216Z,1.30
2023-05-09T13:36:28.999Z,1.58
2023-05-09T13:39:33.231Z,1.42
2023-05-09T13:42:37.641Z,1.58
2023-05-09T13:45:42.004Z,1.30
2023-05-09T13:48:46.236Z,1.15
2023-05-09T13:51:50.167Z,1.08
2023-05-09T13:54:54.382Z,0.88
2023-05-09T13:57:58.722Z,1.60
2023-05-09T14:01:03.497Z,1.58
2023-05-09T14:04:08.083Z,1.40
2023-05-09T14:07:12.566Z,1.55
2023-05-09T14:10:16.761Z,1.33
2023-05-09T14:13:21.203Z,1.42
2023-05-09T14:16:25.926Z,1.13
2023-05-09T14:19:30.227Z,1.55
2023-05-09T14:22:34.330Z,1.60
2023-05-09T14:25:38.646Z,1.38
2023-05-09T14:29:01.720Z,0.95
2023-05-09T14:32:06.106Z,1.48
2023-05-09T14:35:10.441Z,1.63
2023-05-09T14:38:15.047Z,1.65
2023-05-09T14:41:20.929Z,1.20
2023-05-09T14:44:25.823Z,1.40
2023-05-09T14:47:30.054Z,1.23
2023-05-09T14:50:34.717Z,1.30
2023-05-09T14:53:38.908Z,1.20
2023-05-09T14:56:43.141Z,1.40
2023-05-09T14:59:47.628Z,1.55
2023-05-09T15:02:52.002Z,1.15
2023-05-09T15:05:56.756Z,1.33
2023-05-09T15:09:01.041Z,1.17
2023-05-09T15:12:05.541Z,1.42
2023-05-09T15:15:09.740Z,1.48
2023-05-09T15:18:14.161Z,1.58
2023-05-09T15:21:18.450Z,2.20
2023-05-09T15:24:22.764Z,2.15
2023-05-09T15:27:27.522Z,2.25
2023-05-09T15:30:31.623Z,1.52
2023-05-09T15:33:35.934Z,1.40
2023-05-09T15:36:40.471Z,1.27
2023-05-09T15:39:44.976Z,1.00
2023-05-09T15:42:49.325Z,1.00
2023-05-09T15:45:53.465Z,1.20
2023-05-09T15:48:57.883Z,0.98
2023-05-09T15:52:02.348Z,1.17
2023-05-09T15:55:07.148Z,1.00
2023-05-09T15:58:11.421Z,0.85
2023-05-09T16:01:15.538Z,0.80
2023-05-09T16:04:19.954Z,0.75
2023-05-09T16:07:24.469Z,0.60
2023-05-09T16:10:28.762Z,0.75
2023-05-09T16:13:35.086Z,0.60
2023-05-09T16:16:40.638Z,2.25
2023-05-09T16:19:45.235Z,0.60
2023-05-09T16:22:49.896Z,0.50
2023-05-09T16:25:54.385Z,0.52
2023-05-09T16:28:58.605Z,0.50
2023-05-09T16:32:03.080Z,0.40
2023-05-09T16:35:07.562Z,0.35
2023-05-09T16:38:11.736Z,0.40
2023-05-09T16:41:16.269Z,0.50
2023-05-09T16:44:20.888Z,0.30
2023-05-09T16:47:25.374Z,0.40
2023-05-09T16:50:29.738Z,0.38
2023-05-09T16:53:33.967Z,0.47
2023-05-09T16:56:38.346Z,0.30
2023-05-09T16:59:42.846Z,0.30
2023-05-09T17:02:47.502Z,0.35
2023-05-09T17:05:51.899Z,0.40
2023-05-09T17:08:56.340Z,0.43
2023-05-09T17:12:00.559Z,0.40
2023-05-09T17:15:04.950Z,0.30
2023-05-09T17:18:09.250Z,0.30
2023-05-09T17:21:13.456Z,0.47
2023-05-09T17:24:17.665Z,0.30
2023-05-09T17:27:21.856Z,0.50
2023-05-09T17:30:26.268Z,0.45
2023-05-09T17:33:30.430Z,0.50
2023-05-09T17:36:34.892Z,0.35
2023-05-09T17:39:39.096Z,0.50
2023-05-09T17:42:43.368Z,0.60
2023-05-09T17:45:47.915Z,0.57
2023-05-09T17:48:52.625Z,0.40
2023-05-09T17:51:56.934Z,0.55
2023-05-09T17:55:01.276Z,0.40
2023-05-09T17:58:05.516Z,0.47
2023-05-09T18:01:10.100Z,0.40
2023-05-09T18:04:14.372Z,0.32
2023-05-09T18:07:18.876Z,0.60
2023-05-09T18:10:23.184Z,0.60
2023-05-09T18:13:27.696Z,0.60
2023-05-09T18:16:32.030Z,0.88
2023-05-09T18:19:36.327Z,0.40
2023-05-09T18:22:40.947Z,0.60
2023-05-09T18:25:45.220Z,0.60
2023-05-09T18:28:49.794Z,0.50
2023-05-09T18:31:54.025Z,0.70
2023-05-09T18:34:58.408Z,0.63
2023-05-09T18:38:02.668Z,0.60
2023-05-09T18:41:06.861Z,0.57
2023-05-09T18:44:11.271Z,0.60
2023-05-09T18:47:15.958Z,0.40
2023-05-09T18:50:20.428Z,0.63
2023-05-09T18:53:24.691Z,0.50
2023-05-09T18:56:29.105Z,0.60
2023-05-09T18:59:33.618Z,0.50
2023-05-09T19:02:38.164Z,0.50
2023-05-09T19:05:42.476Z,0.60
2023-05-09T19:08:46.620Z,0.60
2023-05-09T19:11:50.744Z,0.70
2023-05-09T19:14:55.146Z,0.90
2023-05-09T19:17:59.366Z,0.90
2023-05-09T19:21:03.658Z,1.00
2023-05-09T19:24:07.713Z,0.77
2023-05-09T19:27:12.279Z,0.70
2023-05-09T19:30:16.569Z,1.00
2023-05-09T19:33:21.480Z,0.65
2023-05-09T19:36:26.125Z,1.15
2023-05-09T19:39:30.366Z,1.10
2023-05-09T19:42:34.664Z,0.77
2023-05-09T19:45:39.145Z,0.82
2023-05-09T19:48:43.653Z,0.82
2023-05-09T19:51:47.981Z,1.05
2023-05-09T19:54:52.590Z,0.95
2023-05-09T19:57:56.813Z,1.10
2023-05-09T20:01:01.463Z,0.95
2023-05-09T20:04:06.013Z,0.88
2023-05-09T20:07:10.505Z,0.88
2023-05-09T20:10:15.081Z,0.60
2023-05-09T20:13:19.409Z,0.50
2023-05-09T20:16:23.787Z,0.63
2023-05-09T20:19:28.241Z,0.60
2023-05-09T20:22:32.806Z,0.60
2023-05-09T20:25:37.119Z,0.70
2023-05-09T20:28:41.375Z,0.52
2023-05-09T20:31:45.991Z,0.55
2023-05-09T20:34:50.383Z,0.40
2023-05-09T20:37:55.032Z,0.40
2023-05-09T20:40:59.311Z,0.40
2023-05-09T20:44:03.504Z,0.30
2023-05-09T20:47:07.861Z,0.70
2023-05-09T20:50:12.461Z,0.40
2023-05-09T20:53:17.043Z,0.30
2023-05-09T20:56:21.488Z,0.20
2023-05-09T20:59:25.671Z,0.20
2023-05-09T21:02:30.477Z,0.30
2023-05-09T21:05:35.266Z,0.30
2023-05-09T21:08:39.934Z,0.20
2023-05-09T21:11:44.080Z,0.30
2023-05-09T21:14:48.573Z,0.10
2023-05-09T21:17:53.074Z,0.20
2023-05-09T21:20:57.533Z,0.20
2023-05-09T21:24:01.962Z,0.20
2023-05-09T21:27:06.629Z,0.28
2023-05-09T21:30:11.054Z,0.10
2023-05-09T21:33:15.593Z,0.20
2023-05-09T21:36:19.860Z,0.15
2023-05-09T21:39:24.426Z,0.13
2023-05-09T21:42:28.943Z,0.10
2023-05-09T21:45:33.201Z,0.10
2023-05-09T21:48:37.338Z,0.20
2023-05-09T21:51:41.691Z,0.22
2023-05-09T21:54:46.190Z,0.20
2023-05-09T21:57:50.273Z,0.10
2023-05-09T22:00:54.553Z,0.30
2023-05-09T22:03:58.935Z,0.30
2023-05-09T22:07:03.464Z,0.25
2023-05-09T22:10:07.776Z,0.30
2023-05-09T22:13:12.330Z,0.45
2023-05-09T22:16:16.651Z,0.30
2023-05-09T22:19:20.972Z,0.20
2023-05-09T22:22:25.275Z,0.32
2023-05-09T22:25:29.583Z,0.20
2023-05-09T22:28:33.821Z,0.10
2023-05-09T22:31:38.238Z,0.10
2023-05-09T22:34:43.278Z,0.10
2023-05-09T22:37:47.683Z,0.00
2023-05-09T22:40:51.997Z,0.08
2023-05-09T22:43:56.281Z,0.10
2023-05-09T22:47:00.591Z,0.10
2023-05-09T22:50:04.928Z,0.00
2023-05-09T22:53:09.326Z,0.20
2023-05-09T22:56:13.500Z,0.40
2023-05-09T22:59:17.934Z,0.17
2023-05-09T23:02:22.349Z,0.00
2023-05-09T23:05:26.660Z,0.10
2023-05-09T23:08:30.949Z,0.10
2023-05-09T23:11:35.539Z,0.10
2023-05-09T23:14:39.878Z,0.03
2023-05-09T23:17:44.101Z,0.10
2023-05-09T23:20:48.506Z,0.10
2023-05-09T23:23:52.850Z,0.10
2023-05-09T23:26:57.357Z,0.10
2023-05-09T23:30:01.689Z,0.10
2023-05-09T23:33:06.029Z,0.10
2023-05-09T23:36:10.397Z,0.40
2023-05-09T23:39:14.695Z,0.10
2023-05-09T23:42:19.226Z,0.10
2023-05-09T23:45:23.590Z,0.00
2023-05-09T23:48:27.795Z,0.00
2023-05-09T23:51:32.132Z,0.10
2023-05-09T23:54:36.387Z,0.17
2023-05-09T23:57:40.619Z,0.20
